Aeroporto :
LOGIN :

Iscrizione | Disclaimer

   EN    FR    IT 

 










Sommario :    VFR   VFR Marginale   IFR   IFR Intensivo   IFR Molto Intensivo
Visibilità : 
Base nubi : 
>= 8 km
>= 3000ft
5 / 8 km
1000 / 3000 ft
1500m / 5 km
500 / 1000 ft
800 / 1500m
200 / 500 ft
< 800m
< 200 ft
Simboli :   Temporali  Nebbia  Neve Forte  Precipitazioni Forti  Vento > 20 kt
SIGMETs :   Varie  Temporali  Ghiacco  Turbolenza  Onda orograficha  Ceneri Vulcaniche






- Altitudine del aeroporto : 289 ft


LFYR - Romorantin Pruniers

ULTIMO METAR :
  • 270800Z AUTO 23008KT 200V260 CAVOK 02/01 Q0992

METARs OBSOLETI :
  • 270730Z AUTO 23006KT 9999 FEW009 BKN130 02/01 Q0992
  • 270700Z AUTO 24007KT 9999 SCT010 SCT160 02/01 Q0992
  • 270630Z AUTO 24008KT 9999 BKN010 BKN170 02/01 Q0992
  • 270600Z AUTO 24007KT 210V270 9999 BKN010 02/01 Q0992
  • 270530Z AUTO 24007KT 9999 BKN012 BKN170 02/01 Q0992

TAF TAF LFYR
Valido dal 26 a 09 ore il 27 a 09 ore UTC


260800Z 2609/2709 28005KT 9999 BKN005
BECMG 2611/2613 CAVOK
TEMPO 2613/2622 23015G25KT 4000 RA BKN013 OVC020TCU
BECMG 2701/2703 BKN012



MetMap, La meteo Aeronautica in un colpo d'occhio ! - Copyright ORBIFLY Dicembre 2007 - Disclaimer

ORBIFLY MET'MAP TEAM :

Programmazione e sviluppo : Alexandra Zaïnal
Concezione : Baudouin d'Aumeries
Aiuto per la programmazione : Marc-Olivier Méhu
Supporto tecnico e logistico : Manuel Goepfert
Aiuto per la traduzione : Arnaldo La Scala

Contatto : metmap@orbifly.com




FONTI E CREDITI :

   NOAA